»·PEaware :: N325HC KBUR-KLAS

N325HC :: KBUR-KLAS

FLIGHT INFORMATION

Flight Status: Arrived
Operator: Privately registered:
United States
More flights under this callsign
Pilot: Ian H. (8262)
Aircraft: Unknown
(0)
More flights by this aircraft type
Origin: KBUR Bob Hope-Burbank
United States
Destination: KLAS McCarran Intl
United States
More flights between these airports :: More routes between these airports
Route: +VNY3 DAG CRESO4
File this flight plan on PilotEdge
Remarks: I5
Altitude:
(Current/Filed)
6,000ft
Speed:
(Current/Filed)
150kts
Departed: 30-Jul-18 05:09 PM
Arrived: 30-Jul-18 06:30 PM
Distance/Time
Traveled:
193nm/1:21
Distance/Time
To Go:
Arrived

Flight Plot

Page will automatically refresh every two minutes.

Flight plan parsing failed; only flown route is shown


Map Options




Map Legend


Flown Route
Filed Route
Departure Airport
Arrival Airport
Navaid (VOR, NDB)
Fix

Horizontal Profiles

Position Reports

Time Latitude Longitude Heading Altitude Ground
Speed
30-Jul-18 16:55 34.199771 -118.359586 91 722ft 0kts
30-Jul-18 16:56 34.199771 -118.359586 91 722ft 0kts
30-Jul-18 16:57 34.199771 -118.359586 91 722ft 0kts
30-Jul-18 16:58 34.199771 -118.359586 91 722ft 0kts
30-Jul-18 16:59 34.199771 -118.359586 91 722ft 0kts
30-Jul-18 17:00 34.199771 -118.359586 91 722ft 0kts
30-Jul-18 17:01 34.199771 -118.359586 91 722ft 0kts
30-Jul-18 17:02 34.199771 -118.359586 91 722ft 0kts
30-Jul-18 17:03 34.199771 -118.359586 91 722ft 0kts
30-Jul-18 17:04 34.199771 -118.359586 91 722ft 0kts
30-Jul-18 17:05 34.199771 -118.359586 91 722ft 0kts
30-Jul-18 17:06 34.199771 -118.359586 91 722ft 0kts
30-Jul-18 17:07 34.199771 -118.359586 91 722ft 0kts
30-Jul-18 17:08 34.199771 -118.359586 91 722ft 0kts
30-Jul-18 17:09 34.199771 -118.359586 91 722ft 0kts
30-Jul-18 17:10 34.204179 -118.359378 347 738ft 42kts
30-Jul-18 17:11 34.211523 -118.361242 9 769ft 6kts
30-Jul-18 17:12 34.211645 -118.361205 20 769ft 0kts
30-Jul-18 17:13 34.211848 -118.361021 57 769ft 3kts
30-Jul-18 17:14 34.201663 -118.357249 163 1002ft 100kts
30-Jul-18 17:15 34.181727 -118.370770 227 2594ft 92kts
30-Jul-18 17:16 34.164190 -118.393773 227 3903ft 110kts
30-Jul-18 17:17 34.138679 -118.426256 227 4627ft 120kts
30-Jul-18 17:18 34.147765 -118.452443 353 5848ft 136kts
30-Jul-18 17:19 34.184897 -118.460891 353 7038ft 137kts
30-Jul-18 17:20 34.221629 -118.470140 353 8328ft 132kts
30-Jul-18 17:21 34.257481 -118.479948 353 9592ft 133kts
30-Jul-18 17:22 34.294214 -118.489878 9 10796ft 147kts
30-Jul-18 17:23 34.340344 -118.475356 21 10763ft 183kts
30-Jul-18 17:24 34.388522 -118.453266 57 10814ft 186kts
30-Jul-18 17:25 34.419852 -118.403933 59 10976ft 187kts
30-Jul-18 17:26 34.452562 -118.351573 55 11003ft 203kts
30-Jul-18 17:27 34.487252 -118.296281 55 11003ft 208kts
30-Jul-18 17:28 34.521906 -118.241093 55 10994ft 167kts
30-Jul-18 17:29 34.552426 -118.192452 55 11014ft 199kts
30-Jul-18 17:30 34.586944 -118.137065 55 11014ft 209kts
30-Jul-18 17:31 34.622134 -118.080628 55 11018ft 210kts
30-Jul-18 17:32 34.637534 -118.015190 84 11014ft 205kts
30-Jul-18 17:33 34.643932 -117.956423 84 11007ft 206kts
30-Jul-18 17:34 34.649571 -117.904931 84 11001ft 206kts
30-Jul-18 17:35 34.656638 -117.836218 83 10994ft 204kts
30-Jul-18 17:36 34.664405 -117.767761 84 11001ft 205kts
30-Jul-18 17:37 34.680894 -117.701427 75 11009ft 204kts
30-Jul-18 17:38 34.697710 -117.635881 75 11020ft 201kts
30-Jul-18 17:39 34.714231 -117.571298 75 11029ft 199kts
30-Jul-18 17:40 34.730662 -117.506986 75 11027ft 199kts
30-Jul-18 17:41 34.747081 -117.442563 75 11025ft 199kts
30-Jul-18 17:42 34.763439 -117.378195 75 11027ft 199kts
30-Jul-18 17:43 34.779745 -117.313887 75 11023ft 199kts
30-Jul-18 17:44 34.796133 -117.249131 75 11011ft 201kts
30-Jul-18 17:45 34.812470 -117.184419 75 11074ft 201kts
30-Jul-18 17:46 34.829043 -117.118402 75 11053ft 205kts
30-Jul-18 17:47 34.845284 -117.052242 73 11035ft 204kts
30-Jul-18 17:48 34.861854 -116.985773 73 11024ft 204kts
30-Jul-18 17:49 34.878386 -116.919305 73 11020ft 206kts
30-Jul-18 17:50 34.894978 -116.852355 73 11021ft 207kts
30-Jul-18 17:51 34.911677 -116.784996 73 11021ft 207kts
30-Jul-18 17:52 34.928334 -116.717653 73 11020ft 208kts
30-Jul-18 17:53 34.944977 -116.650195 73 11020ft 208kts
30-Jul-18 17:54 34.961581 -116.582691 73 11025ft 208kts
30-Jul-18 17:55 34.988429 -116.520039 61 11034ft 208kts
30-Jul-18 17:56 35.016050 -116.457766 61 11047ft 208kts
30-Jul-18 17:57 35.043811 -116.395641 62 11064ft 209kts
30-Jul-18 17:58 35.071491 -116.333144 62 11066ft 209kts
30-Jul-18 17:59 35.099232 -116.270399 62 11066ft 210kts
30-Jul-18 18:00 35.124340 -116.213530 61 11065ft 209kts
30-Jul-18 18:01 35.151903 -116.150988 61 11065ft 209kts
30-Jul-18 18:02 35.179512 -116.088222 62 11065ft 209kts
30-Jul-18 18:03 35.207100 -116.025380 62 11065ft 209kts
30-Jul-18 18:04 35.234649 -115.962511 62 11065ft 209kts
30-Jul-18 18:05 35.262128 -115.899700 62 11065ft 209kts
30-Jul-18 18:06 35.289566 -115.836836 62 11066ft 209kts
30-Jul-18 18:07 35.319147 -115.775610 47 11067ft 210kts
30-Jul-18 18:08 35.358861 -115.723401 48 11066ft 209kts
30-Jul-18 18:09 35.417357 -115.645340 48 11066ft 209kts
30-Jul-18 18:10 35.467270 -115.578591 48 11066ft 209kts
30-Jul-18 18:11 35.506515 -115.526017 48 11049ft 210kts
30-Jul-18 18:12 35.547131 -115.471573 48 10601ft 220kts
30-Jul-18 18:13 35.588163 -115.416595 48 10106ft 221kts
30-Jul-18 18:14 35.628458 -115.362481 48 10059ft 210kts
30-Jul-18 18:15 35.667714 -115.309629 48 10054ft 208kts
30-Jul-18 18:16 35.706773 -115.256948 48 10054ft 208kts
30-Jul-18 18:17 35.745332 -115.204189 47 10045ft 207kts
30-Jul-18 18:18 35.784220 -115.151691 47 10036ft 208kts
30-Jul-18 18:19 35.823476 -115.098723 48 10023ft 211kts
30-Jul-18 18:20 35.863487 -115.044567 40 10008ft 216kts
30-Jul-18 18:21 35.922834 -115.036688 1 9649ft 206kts
30-Jul-18 18:22 35.970067 -115.034197 1 8883ft 167kts
30-Jul-18 18:23 36.018021 -115.031250 1 8094ft 176kts
30-Jul-18 18:24 36.067123 -115.027874 1 7302ft 178kts
30-Jul-18 18:25 36.116569 -115.024106 1 6508ft 178kts
30-Jul-18 18:26 36.164608 -115.018342 6 5733ft 178kts
30-Jul-18 18:27 36.196617 -115.042101 246 4934ft 168kts
30-Jul-18 18:28 36.166716 -115.088231 231 4018ft 194kts
30-Jul-18 18:29 36.135823 -115.133510 224 2568ft 152kts
30-Jul-18 18:30 36.104166 -115.153728 205 2184ft 98kts
30-Jul-18 18:31 36.089410 -115.163501 290 2127ft 0kts
30-Jul-18 18:32 36.089424 -115.163540 294 2127ft 7kts

Navigation Log

Ident Type
Flight plan parsing failed, navigation log unavailable